Time;durP1;ratioP1;P1;durP2;ratioP2;P2;SDS_P1;SDS_P2;PMS_P1;PMS_P2;Temp;Humidity;BMP_temperature;BMP_pressure;BME280_temperature;BME280_humidity;BME280_pressure;Samples;Min_cycle;Max_cycle;Signal;HPM_P1;HPM_P2
2023/09/28 00:01:26;;;;;;;12.30;7.70;;;;;;;13.51;85.27;100965.61;105546;1256;73593;-58
2023/09/28 00:03:55;;;;;;;17.20;8.20;;;;;;;13.55;85.20;100965.28;105591;1251;69054;-58
2023/09/28 00:06:24;;;;;;;8.90;7.60;;;;;;;13.53;85.25;100961.14;105699;1251;69174;-58
2023/09/28 00:08:52;;;;;;;13.30;8.80;;;;;;;13.56;85.30;100963.34;105552;1255;74904;-58
2023/09/28 00:11:20;;;;;;;12.80;7.90;;;;;;;13.57;85.55;100961.85;105603;1257;83870;-58
2023/09/28 00:13:49;;;;;;;12.50;7.50;;;;;;;13.64;85.82;100965.13;105594;1256;72660;-58
2023/09/28 00:16:18;;;;;;;15.40;9.00;;;;;;;13.68;85.97;100959.13;105610;1252;69217;-58
2023/09/28 00:18:46;;;;;;;14.30;8.10;;;;;;;13.79;86.39;100961.83;105569;1251;69109;-58
2023/09/28 00:21:15;;;;;;;11.70;8.20;;;;;;;13.90;86.35;100960.17;105554;1252;74962;-58
2023/09/28 00:23:43;;;;;;;11.90;8.50;;;;;;;13.92;85.79;100960.77;105601;1251;82948;-58
2023/09/28 00:26:12;;;;;;;13.60;8.30;;;;;;;13.90;85.31;100964.90;105616;1255;71748;-58
2023/09/28 00:28:42;;;;;;;;;;;;;;;13.91;85.54;100962.07;105597;1251;69179;-58
2023/09/28 00:31:10;;;;;;;12.30;8.50;;;;;;;13.87;85.42;100962.91;105631;1256;69218;-58
2023/09/28 00:33:38;;;;;;;10.50;7.70;;;;;;;13.89;85.65;100961.10;105584;1251;74539;-58
2023/09/28 00:36:07;;;;;;;11.00;7.80;;;;;;;13.89;85.53;100959.34;105579;1251;83350;-58
2023/09/28 00:38:36;;;;;;;13.40;7.70;;;;;;;13.86;85.48;100959.45;105552;1256;73030;-58
2023/09/28 00:41:05;;;;;;;10.00;7.40;;;;;;;13.85;85.51;100955.80;105710;1255;69259;-58
2023/09/28 00:43:34;;;;;;;13.10;7.40;;;;;;;13.80;85.01;100960.73;105610;1252;69163;-58
2023/09/28 00:46:03;;;;;;;13.80;7.90;;;;;;;13.72;84.66;100959.86;105594;1251;75008;-58
2023/09/28 00:48:34;;;;;;;11.60;7.20;;;;;;;13.61;84.54;100958.17;105491;1258;83376;-58
2023/09/28 00:51:03;;;;;;;12.40;7.90;;;;;;;13.51;84.50;100956.33;105680;1251;73473;-58
2023/09/28 00:53:31;;;;;;;13.30;8.70;;;;;;;13.42;84.57;100953.16;105559;1251;69166;-58
2023/09/28 00:56:00;;;;;;;11.10;7.60;;;;;;;13.35;84.66;100949.05;105624;1251;69190;-58
2023/09/28 00:58:29;;;;;;;9.50;7.80;;;;;;;13.29;84.67;100951.05;105498;1251;74835;-58
2023/09/28 01:01:00;;;;;;;10.00;7.60;;;;;;;13.22;84.71;100947.80;105574;1251;82302;-58
2023/09/28 01:03:28;;;;;;;10.00;7.60;;;;;;;13.13;84.60;100947.44;105527;1256;71670;-58
2023/09/28 01:05:58;;;;;;;10.50;8.20;;;;;;;13.05;84.63;100948.96;105660;1256;69179;-58
2023/09/28 01:08:26;;;;;;;9.90;7.10;;;;;;;12.96;84.51;100950.36;105587;1251;69064;-58
2023/09/28 01:10:55;;;;;;;11.10;7.70;;;;;;;12.87;84.50;100948.25;105447;1257;73018;-58
2023/09/28 01:13:24;;;;;;;10.00;8.10;;;;;;;12.80;84.85;100944.11;105416;1257;83338;-58
2023/09/28 01:15:52;;;;;;;9.80;7.40;;;;;;;12.73;84.83;100946.52;105397;1257;73755;-58
2023/09/28 01:18:22;;;;;;;13.80;8.80;;;;;;;12.68;85.00;100940.87;105581;1256;69205;-58
2023/09/28 01:20:52;;;;;;;12.90;7.60;;;;;;;12.62;84.99;100944.08;105644;1256;69303;-58
2023/09/28 01:23:21;;;;;;;11.70;8.60;;;;;;;12.55;85.19;100940.32;105577;1251;73769;-58
2023/09/28 01:25:49;;;;;;;10.20;7.60;;;;;;;12.49;85.20;100938.77;105541;1256;83296;-58
2023/09/28 01:28:18;;;;;;;9.10;7.30;;;;;;;12.43;85.22;100937.96;105515;1251;72689;-58
2023/09/28 01:30:48;;;;;;;12.60;7.20;;;;;;;12.36;85.41;100933.29;105617;1255;69102;-57
2023/09/28 01:33:16;;;;;;;11.30;8.20;;;;;;;12.29;85.29;100929.14;105626;1251;69071;-58
2023/09/28 01:35:47;;;;;;;13.30;7.70;;;;;;;12.23;85.39;100926.76;105579;1254;74853;-57
2023/09/28 01:38:31;;;;;;;10.60;7.30;;;;;;;12.19;85.65;100929.00;105589;1253;84049;-58
2023/09/28 01:40:59;;;;;;;12.10;7.60;;;;;;;12.13;85.59;100926.41;105577;1251;73676;-58
2023/09/28 01:43:27;;;;;;;12.50;8.10;;;;;;;12.07;85.73;100924.88;105596;1256;69480;-58
2023/09/28 01:45:56;;;;;;;10.10;7.80;;;;;;;12.04;85.90;100923.40;105502;1257;69009;-58
2023/09/28 01:48:24;;;;;;;10.70;8.30;;;;;;;12.02;86.23;100917.85;105534;1256;74051;-59
2023/09/28 01:50:52;;;;;;;11.50;8.10;;;;;;;12.00;86.22;100917.94;105574;1256;83437;-58
2023/09/28 01:53:22;;;;;;;14.00;7.80;;;;;;;11.97;86.41;100918.73;105731;1251;72843;-58
2023/09/28 01:55:51;;;;;;;10.50;7.70;;;;;;;11.93;86.39;100918.84;105593;1251;69026;-58
2023/09/28 01:58:20;;;;;;;11.40;8.20;;;;;;;11.91;86.52;100919.80;105476;1257;69196;-58
2023/09/28 02:00:49;;;;;;;11.90;7.90;;;;;;;11.89;86.76;100917.95;105546;1251;74753;-58
2023/09/28 02:03:17;;;;;;;9.90;7.30;;;;;;;11.86;86.75;100919.80;105547;1256;83235;-58
2023/09/28 02:05:45;;;;;;;10.90;7.50;;;;;;;11.82;86.72;100917.27;105555;1257;73122;-58
2023/09/28 02:08:15;;;;;;;9.50;7.60;;;;;;;11.79;86.88;100918.25;105586;1253;69160;-58
2023/09/28 02:10:43;;;;;;;9.80;7.60;;;;;;;11.75;86.88;100919.08;105547;1255;69158;-57
2023/09/28 02:13:12;;;;;;;14.70;8.70;;;;;;;11.73;87.09;100917.75;105417;1256;73424;-58
2023/09/28 02:15:42;;;;;;;9.30;7.30;;;;;;;11.71;87.05;100913.27;105631;1251;83417;-58
2023/09/28 02:18:10;;;;;;;10.20;7.30;;;;;;;11.67;87.17;100911.31;105587;1254;73651;-58
2023/09/28 02:20:39;;;;;;;10.80;6.60;;;;;;;11.62;87.16;100910.07;105394;1253;69151;-57
2023/09/28 02:23:09;;;;;;;10.80;7.30;;;;;;;11.58;87.08;100906.88;105521;1251;69140;-58
2023/09/28 02:25:37;;;;;;;;;;;;;;;11.55;87.29;100907.83;105596;1255;73002;-57
2023/09/28 02:28:06;;;;;;;11.60;6.40;;;;;;;11.51;87.24;100904.83;105566;1251;83740;-57
2023/09/28 02:30:34;;;;;;;8.30;6.40;;;;;;;11.49;87.47;100906.30;105699;1251;73741;-58
2023/09/28 02:33:06;;;;;;;10.00;7.20;;;;;;;11.44;87.43;100904.36;105542;1256;69138;-57
2023/09/28 02:35:35;;;;;;;11.20;7.20;;;;;;;11.39;87.41;100902.24;105558;1256;69240;-58
2023/09/28 02:38:03;;;;;;;9.70;7.10;;;;;;;11.36;87.51;100905.84;105703;1251;75060;-58
2023/09/28 02:40:32;;;;;;;9.30;7.30;;;;;;;11.34;87.60;100904.18;105546;1255;82688;-57
2023/09/28 02:43:00;;;;;;;8.90;7.30;;;;;;;11.29;87.60;100903.96;105545;1250;73655;-57
2023/09/28 02:45:29;;;;;;;10.00;7.20;;;;;;;11.26;87.55;100901.96;105588;1256;69167;-58
2023/09/28 02:47:57;;;;;;;15.60;7.80;;;;;;;11.25;87.68;100898.86;105645;1251;69161;-57
2023/09/28 02:50:26;;;;;;;12.50;8.10;;;;;;;11.23;87.85;100895.95;105421;1257;74817;-58
2023/09/28 02:52:55;;;;;;;10.90;7.60;;;;;;;11.22;88.10;100896.65;105623;1252;82627;-57
2023/09/28 02:55:24;;;;;;;13.10;7.90;;;;;;;11.21;87.91;100898.65;105735;1251;73984;-58
2023/09/28 02:57:52;;;;;;;11.30;8.00;;;;;;;11.17;87.86;100898.59;105422;1253;69201;-57
2023/09/28 03:02:56;;;;;;;11.20;7.70;;;;;;;11.11;88.13;100905.23;105449;1256;74944;-58
2023/09/28 03:05:26;;;;;;;13.60;8.70;;;;;;;11.12;88.39;100908.53;105627;1256;83219;-58
2023/09/28 03:07:54;;;;;;;12.10;8.90;;;;;;;11.13;88.88;100909.69;105547;1256;73220;-58
2023/09/28 03:10:24;;;;;;;11.30;9.10;;;;;;;11.20;89.51;100909.30;105600;1251;69303;-58
2023/09/28 03:12:56;;;;;;;11.70;8.90;;;;;;;11.20;89.03;100905.84;105446;1257;69151;-58
2023/09/28 03:15:25;;;;;;;11.90;8.60;;;;;;;11.17;88.81;100906.79;105389;1256;74126;-58
2023/09/28 03:17:55;;;;;;;14.30;9.00;;;;;;;11.17;89.07;100902.60;105614;1251;83732;-58
2023/09/28 03:20:26;;;;;;;13.40;7.90;;;;;;;11.17;89.16;100900.14;105591;1253;73872;-58
2023/09/28 03:22:54;;;;;;;13.60;8.60;;;;;;;11.16;89.26;100896.31;105695;1251;69033;-58
2023/09/28 03:25:23;;;;;;;13.00;9.40;;;;;;;11.13;88.89;100897.29;105564;1251;69068;-58
2023/09/28 03:27:53;;;;;;;11.70;9.10;;;;;;;11.13;89.24;100900.77;105489;1257;74847;-58
2023/09/28 03:30:22;;;;;;;;;;;;;;;11.11;89.02;100899.45;105447;1251;82849;-58
2023/09/28 03:32:51;;;;;;;12.60;8.50;;;;;;;11.09;89.00;100895.33;105569;1254;73686;-58
2023/09/28 03:35:20;;;;;;;11.10;8.30;;;;;;;11.06;89.21;100891.73;105647;1251;69060;-58
2023/09/28 03:37:58;;;;;;;11.40;7.80;;;;;;;11.07;89.15;100897.30;105788;1256;69170;-58
2023/09/28 03:40:33;;;;;;;10.90;8.30;;;;;;;11.03;89.00;100900.94;105762;1253;74622;-58
2023/09/28 03:43:02;;;;;;;12.20;8.70;;;;;;;11.00;88.95;100902.96;105635;1256;83271;-58
2023/09/28 03:45:31;;;;;;;11.00;8.90;;;;;;;10.96;88.88;100904.98;105706;1256;73382;-58
2023/09/28 03:47:59;;;;;;;12.60;8.60;;;;;;;10.94;89.10;100904.69;105610;1256;69201;-58
2023/09/28 03:50:28;;;;;;;13.60;9.00;;;;;;;10.93;89.12;100908.06;105583;1256;69173;-59
2023/09/28 03:52:56;;;;;;;12.50;8.90;;;;;;;10.91;89.29;100905.30;105592;1255;73825;-58
2023/09/28 03:55:25;;;;;;;11.60;8.60;;;;;;;10.90;89.24;100905.89;105574;1255;83274;-58
2023/09/28 03:57:53;;;;;;;9.70;8.10;;;;;;;10.88;89.27;100905.92;105553;1251;73673;-58
2023/09/28 04:00:21;;;;;;;10.20;7.50;;;;;;;10.88;89.29;100909.95;105552;1255;69192;-58
2023/09/28 04:02:51;;;;;;;11.90;8.70;;;;;;;10.85;89.38;100907.41;105642;1255;69199;-58
2023/09/28 04:05:26;;;;;;;10.80;9.40;;;;;;;10.88;90.02;100907.86;105634;1256;74723;-58
2023/09/28 04:07:55;;;;;;;11.60;8.20;;;;;;;10.89;89.55;100905.39;105627;1251;82450;-58
2023/09/28 04:10:23;;;;;;;11.50;8.40;;;;;;;10.87;89.71;100901.43;105559;1253;72715;-58
2023/09/28 04:12:53;;;;;;;11.20;7.90;;;;;;;10.86;89.52;100901.61;105585;1256;69571;-58
2023/09/28 04:15:25;;;;;;;12.50;8.40;;;;;;;10.84;89.97;100900.29;105575;1251;69267;-58
2023/09/28 04:17:53;;;;;;;13.40;8.50;;;;;;;10.91;90.59;100894.11;105596;1251;74693;-58
2023/09/28 04:20:22;;;;;;;11.20;8.10;;;;;;;10.93;90.40;100891.63;105602;1256;83026;-57
2023/09/28 04:22:51;;;;;;;15.60;8.80;;;;;;;10.94;90.50;100891.58;105553;1251;73680;-57
2023/09/28 04:25:21;;;;;;;12.30;9.10;;;;;;;10.92;90.00;100898.12;105600;1251;69211;-58
2023/09/28 04:27:49;;;;;;;11.40;9.20;;;;;;;10.92;90.79;100902.84;105562;1256;69119;-58
2023/09/28 04:30:19;;;;;;;13.70;9.90;;;;;;;10.98;91.03;100894.64;105653;1251;74672;-58
2023/09/28 04:32:54;;;;;;;17.70;10.60;;;;;;;11.03;91.41;100893.59;105563;1256;83654;-58
2023/09/28 04:35:23;;;;;;;11.60;8.80;;;;;;;11.07;91.56;100895.02;105632;1256;72747;-58
2023/09/28 04:37:51;;;;;;;12.10;8.60;;;;;;;11.07;91.00;100889.97;105594;1256;69189;-58
2023/09/28 04:40:24;;;;;;;11.30;8.60;;;;;;;11.07;91.07;100890.67;105573;1256;69103;-58
2023/09/28 04:42:54;;;;;;;10.80;8.50;;;;;;;11.06;90.80;100891.74;105633;1251;74134;-58
2023/09/28 04:45:22;;;;;;;12.00;9.00;;;;;;;11.05;90.82;100892.14;105577;1251;83646;-58
2023/09/28 04:47:51;;;;;;;11.30;8.80;;;;;;;11.03;90.71;100887.98;105632;1251;73488;-58
2023/09/28 04:50:20;;;;;;;12.10;9.60;;;;;;;11.02;90.67;100888.20;105542;1251;69244;-58
2023/09/28 04:52:48;;;;;;;12.90;9.70;;;;;;;10.98;90.48;100892.70;105715;1251;69102;-58
2023/09/28 04:55:17;;;;;;;12.00;9.10;;;;;;;10.97;90.61;100890.61;105603;1251;74856;-58
2023/09/28 04:57:45;;;;;;;11.50;8.30;;;;;;;10.96;90.65;100886.99;105601;1253;83695;-56
2023/09/28 05:00:16;;;;;;;15.00;9.70;;;;;;;10.96;90.88;100892.77;105614;1253;73752;-54
2023/09/28 05:02:47;;;;;;;14.70;9.80;;;;;;;10.99;90.95;100891.10;105682;1255;69107;-57
2023/09/28 05:05:17;;;;;;;12.90;9.50;;;;;;;10.95;90.73;100893.65;105659;1256;69519;-57
2023/09/28 05:07:45;;;;;;;11.90;9.40;;;;;;;11.01;91.60;100891.91;105735;1254;74599;-54
2023/09/28 05:10:14;;;;;;;11.30;8.40;;;;;;;11.03;91.30;100891.50;105638;1255;82567;-57
2023/09/28 05:12:43;;;;;;;15.30;10.00;;;;;;;10.99;91.02;100894.94;105605;1251;73002;-54
2023/09/28 05:15:13;;;;;;;14.00;8.70;;;;;;;11.03;91.53;100893.93;105712;1256;69184;-56
2023/09/28 05:17:42;;;;;;;;;;;;;;;11.07;91.87;100893.48;105759;1253;69173;-55
2023/09/28 05:20:11;;;;;;;12.80;8.70;;;;;;;11.08;91.81;100894.66;105725;1255;73656;-53
2023/09/28 05:22:40;;;;;;;16.50;9.10;;;;;;;11.10;92.22;100892.16;105699;1252;82233;-57
2023/09/28 05:25:09;;;;;;;14.80;11.10;;;;;;;11.16;92.12;100898.42;105734;1256;73724;-57
2023/09/28 05:27:37;;;;;;;15.40;10.80;;;;;;;11.22;93.10;100900.16;105756;1252;69119;-57
2023/09/28 05:30:06;;;;;;;20.20;12.70;;;;;;;11.33;93.52;100902.61;105594;1254;69103;-57
2023/09/28 05:32:35;;;;;;;16.50;12.90;;;;;;;11.48;94.52;100900.23;105559;1253;74484;-57
2023/09/28 05:35:06;;;;;;;15.40;12.40;;;;;;;11.66;95.24;100900.13;105708;1255;83043;-56
2023/09/28 05:37:34;;;;;;;;;;;;;;;11.80;95.07;100900.36;105684;1253;73494;-57
2023/09/28 05:40:04;;;;;;;15.60;12.00;;;;;;;11.88;94.67;100897.85;105658;1256;69162;-57
2023/09/28 05:42:35;;;;;;;15.80;12.40;;;;;;;12.03;95.41;100903.11;105745;1252;69196;-57
2023/09/28 05:45:04;;;;;;;17.60;12.60;;;;;;;12.23;95.94;100900.65;105788;1253;73794;-57
2023/09/28 05:47:34;;;;;;;16.20;12.70;;;;;;;12.46;96.47;100901.74;105743;1255;82641;-57
2023/09/28 05:50:07;;;;;;;19.40;12.20;;;;;;;12.69;96.79;100902.96;105988;1252;72720;-57
2023/09/28 05:52:35;;;;;;;17.20;11.80;;;;;;;12.90;96.62;100900.26;105753;1253;69128;-57
2023/09/28 05:55:05;;;;;;;14.80;11.30;;;;;;;13.05;96.35;100904.25;105822;1255;69119;-57
2023/09/28 05:57:33;;;;;;;18.30;11.60;;;;;;;13.20;96.11;100904.88;105716;1255;75650;-57
2023/09/28 06:00:07;;;;;;;16.70;12.30;;;;;;;13.35;96.11;100907.27;105574;1253;83718;-57
2023/09/28 06:02:36;;;;;;;15.30;11.80;;;;;;;13.50;95.98;100908.08;105824;1252;72643;-56
2023/09/28 06:05:05;;;;;;;14.70;12.20;;;;;;;13.60;95.69;100903.27;105853;1253;69062;-55
2023/09/28 06:07:33;;;;;;;15.80;11.40;;;;;;;13.69;95.31;100908.53;105637;1251;69184;-56
2023/09/28 06:10:03;;;;;;;15.40;11.10;;;;;;;13.77;95.34;100909.43;105672;1255;74813;-57
2023/09/28 06:12:31;;;;;;;17.50;10.40;;;;;;;13.86;95.23;100911.83;105584;1254;83314;-57
2023/09/28 06:14:59;;;;;;;13.20;11.00;;;;;;;13.97;95.29;100913.65;105703;1252;73968;-58
2023/09/28 06:17:28;;;;;;;15.70;11.10;;;;;;;14.07;95.09;100911.81;105832;1256;69067;-57
2023/09/28 06:19:56;;;;;;;16.20;11.20;;;;;;;14.16;94.99;100920.05;105631;1253;69970;-57
2023/09/28 06:22:25;;;;;;;15.00;11.30;;;;;;;14.24;94.94;100915.45;105502;1255;300696;-57
2023/09/28 06:24:55;;;;;;;19.00;10.80;;;;;;;14.33;94.91;100918.06;105647;1256;83391;-58
2023/09/28 06:27:25;;;;;;;16.70;11.10;;;;;;;14.41;94.80;100915.95;105744;1256;72623;-57
2023/09/28 06:29:53;;;;;;;21.60;11.50;;;;;;;14.49;94.70;100917.71;105587;1256;69454;-58
2023/09/28 06:32:22;;;;;;;12.70;10.70;;;;;;;14.57;94.60;100914.38;105552;1253;69068;-58
2023/09/28 06:34:51;;;;;;;16.50;10.30;;;;;;;14.66;94.61;100910.63;105706;1255;73855;-58
2023/09/28 06:37:20;;;;;;;12.90;10.50;;;;;;;14.76;94.43;100914.58;105611;1253;81553;-57
2023/09/28 06:39:48;;;;;;;14.20;10.20;;;;;;;14.85;94.33;100913.26;105590;1252;73667;-57
2023/09/28 06:42:16;;;;;;;18.00;10.70;;;;;;;14.95;94.25;100912.81;105594;1252;69164;-54
2023/09/28 06:45:03;;;;;;;14.40;10.20;;;;;;;15.05;94.07;100913.75;105542;1253;69081;-57
2023/09/28 06:47:32;;;;;;;12.40;9.80;;;;;;;15.15;94.10;100908.84;107433;1251;75155;-57
2023/09/28 06:50:21;;;;;;;16.10;9.50;;;;;;;15.27;93.93;100905.13;105621;1253;83247;-57
2023/09/28 06:52:51;;;;;;;17.20;9.40;;;;;;;15.38;93.77;100907.91;105792;1256;73940;-57
2023/09/28 06:55:23;;;;;;;13.90;9.20;;;;;;;15.52;93.49;100903.91;105643;1255;69138;-57
2023/09/28 06:57:52;;;;;;;12.50;8.90;;;;;;;15.63;93.27;100908.79;105708;1255;69119;-57
2023/09/28 07:00:22;;;;;;;15.30;9.40;;;;;;;15.75;93.03;100906.28;105639;1255;74978;-55
2023/09/28 07:02:51;;;;;;;;;;;;;;;15.87;92.62;100910.27;105671;1255;83148;-54
2023/09/28 07:05:19;;;;;;;14.10;8.80;;;;;;;15.99;92.35;100916.70;105989;1251;73245;-55
2023/09/28 07:07:48;;;;;;;15.40;9.60;;;;;;;16.09;92.10;100919.72;105555;1255;69129;-57
2023/09/28 07:10:17;;;;;;;14.00;9.00;;;;;;;16.16;91.65;100918.67;105669;1253;69089;-57
2023/09/28 07:12:46;;;;;;;15.10;8.90;;;;;;;16.20;91.27;100919.15;105680;1253;74881;-57
2023/09/28 07:15:14;;;;;;;12.00;9.50;;;;;;;16.28;91.13;100921.39;105628;1251;82519;-55
2023/09/28 07:17:42;;;;;;;15.00;9.50;;;;;;;16.35;90.79;100926.85;105578;1256;73049;-57
2023/09/28 07:20:14;;;;;;;11.60;8.80;;;;;;;16.41;90.53;100923.69;105574;1253;69122;-57
2023/09/28 07:22:42;;;;;;;13.70;9.10;;;;;;;16.47;90.28;100920.70;105577;1252;69156;-57
2023/09/28 07:25:10;;;;;;;15.80;8.10;;;;;;;16.54;89.99;100920.50;105671;1252;74785;-57
2023/09/28 07:27:41;;;;;;;18.60;8.40;;;;;;;16.64;89.99;100919.81;105589;1256;82194;-57
2023/09/28 07:30:11;;;;;;;11.70;8.40;;;;;;;16.75;89.67;100920.47;105610;1256;72727;-56
2023/09/28 07:32:39;;;;;;;;;;;;;;;16.87;89.57;100917.88;105665;1252;69060;-56
2023/09/28 07:35:11;;;;;;;12.10;7.30;;;;;;;16.99;89.43;100920.77;105670;1251;69785;-55
2023/09/28 07:37:44;;;;;;;13.10;8.20;;;;;;;17.12;89.29;100924.80;105624;1251;72586;-57
2023/09/28 07:40:15;;;;;;;14.20;7.90;;;;;;;17.25;88.95;100926.05;105600;1254;83287;-56
2023/09/28 07:42:47;;;;;;;12.80;7.50;;;;;;;17.40;88.65;100927.96;105517;1253;74563;-54
2023/09/28 07:45:18;;;;;;;9.50;7.60;;;;;;;17.53;88.39;100927.96;105587;1251;69162;-54
2023/09/28 07:47:46;;;;;;;9.70;6.50;;;;;;;17.67;87.89;100931.20;105771;1253;69001;-55
2023/09/28 07:50:14;;;;;;;14.00;7.20;;;;;;;17.79;87.62;100935.80;105632;1254;74561;-52
2023/09/28 07:52:44;;;;;;;14.70;6.80;;;;;;;17.95;87.33;100937.88;106016;1253;83330;-55
2023/09/28 07:55:14;;;;;;;9.50;7.00;;;;;;;18.12;87.03;100940.63;105625;1254;72504;-55
2023/09/28 07:57:43;;;;;;;18.30;7.70;;;;;;;18.26;86.80;100942.56;105676;1251;69213;-55
2023/09/28 08:00:24;;;;;;;11.50;7.10;;;;;;;18.41;86.45;100945.42;105603;1251;69062;-56
2023/09/28 08:02:53;;;;;;;9.70;7.40;;;;;;;18.54;85.98;100949.23;105615;1255;73774;-56
2023/09/28 08:05:22;;;;;;;10.10;7.30;;;;;;;18.64;85.17;100950.52;105738;1254;83628;-52
2023/09/28 08:07:50;;;;;;;11.20;7.20;;;;;;;18.79;85.05;100951.72;105682;1256;73893;-55
2023/09/28 08:10:38;;;;;;;12.20;7.40;;;;;;;18.96;84.50;100954.95;105624;1252;69071;-54
2023/09/28 08:13:06;;;;;;;12.10;6.80;;;;;;;19.09;84.14;100953.56;105403;1258;69165;-54
2023/09/28 08:15:35;;;;;;;11.10;7.00;;;;;;;19.20;83.49;100955.54;105753;1253;74771;-55
2023/09/28 08:18:04;;;;;;;12.20;7.30;;;;;;;19.31;83.16;100956.96;105680;1253;83756;-55
2023/09/28 08:20:33;;;;;;;11.00;6.90;;;;;;;19.40;82.69;100954.23;105633;1252;72561;-55
2023/09/28 08:23:06;;;;;;;11.00;6.50;;;;;;;19.51;82.38;100953.69;105726;1255;69183;-55
2023/09/28 08:25:35;;;;;;;9.80;6.70;;;;;;;19.62;82.04;100954.75;105622;1255;69136;-54
2023/09/28 08:28:04;;;;;;;12.70;6.90;;;;;;;19.76;81.72;100951.92;105622;1255;75064;-54
2023/09/28 08:30:32;;;;;;;11.50;7.00;;;;;;;19.89;81.37;100949.80;105668;1254;83033;-52
2023/09/28 08:33:01;;;;;;;12.00;6.80;;;;;;;20.04;81.05;100948.79;105709;1254;73855;-51
2023/09/28 08:35:31;;;;;;;12.70;7.00;;;;;;;20.22;80.33;100951.80;105742;1253;69862;-52
2023/09/28 08:38:00;;;;;;;;;;;;;;;20.37;79.85;100952.55;105601;1256;69885;-50
2023/09/28 08:40:30;;;;;;;10.40;6.50;;;;;;;20.54;79.62;100951.95;105600;1253;74967;-49
2023/09/28 08:43:00;;;;;;;10.20;6.60;;;;;;;20.73;79.16;100953.27;105576;1255;83877;-51
2023/09/28 08:45:31;;;;;;;10.40;5.90;;;;;;;20.87;78.38;100949.03;105638;1254;72715;-58
2023/09/28 08:48:01;;;;;;;12.00;6.20;;;;;;;21.04;77.67;100946.73;105775;1251;69203;-58
2023/09/28 08:50:39;;;;;;;11.50;5.90;;;;;;;21.21;76.68;100943.38;105692;1255;69213;-59
2023/09/28 08:53:08;;;;;;;11.40;5.90;;;;;;;21.40;76.14;100939.36;105597;1252;73899;-56
2023/09/28 08:55:38;;;;;;;9.60;6.10;;;;;;;21.57;75.95;100937.58;105787;1255;83192;-54
2023/09/28 08:58:07;;;;;;;10.90;5.80;;;;;;;21.75;75.32;100932.47;105721;1255;73640;-55
2023/09/28 09:00:36;;;;;;;6.90;5.40;;;;;;;21.92;74.54;100932.48;105892;1255;69202;-55
2023/09/28 09:03:06;;;;;;;11.10;5.60;;;;;;;22.08;74.05;100931.77;105777;1253;69028;-57
2023/09/28 09:05:39;;;;;;;14.10;6.70;;;;;;;22.27;73.42;100928.66;105633;1254;73793;-57
2023/09/28 09:08:09;;;;;;;7.80;6.00;;;;;;;22.49;72.90;100929.63;105515;1253;82427;-56
2023/09/28 09:10:38;;;;;;;13.10;5.70;;;;;;;22.68;72.26;100925.98;106398;1253;73540;-56
2023/09/28 09:13:15;;;;;;;11.20;5.80;;;;;;;22.88;71.44;100927.05;105492;1257;69198;-55
2023/09/28 09:15:44;;;;;;;8.80;5.90;;;;;;;23.06;70.56;100928.92;105631;1253;69172;-57
2023/09/28 09:18:18;;;;;;;9.40;5.50;;;;;;;23.22;69.75;100928.64;105654;1253;73771;-54
2023/09/28 09:20:48;;;;;;;6.30;4.80;;;;;;;23.40;69.04;100920.39;105592;1252;83425;-57
2023/09/28 09:23:17;;;;;;;8.90;5.40;;;;;;;23.58;68.56;100918.69;105620;1255;72532;-57
2023/09/28 09:25:47;;;;;;;11.20;5.60;;;;;;;23.77;67.50;100915.67;105595;1253;69091;-57
2023/09/28 09:28:33;;;;;;;10.60;5.30;;;;;;;23.91;66.45;100919.89;105744;1253;69159;-57
2023/09/28 09:31:01;;;;;;;9.70;5.40;;;;;;;24.06;65.84;100918.63;105687;1253;74829;-57
2023/09/28 09:33:30;;;;;;;10.40;5.00;;;;;;;24.27;65.76;100922.68;105636;1255;82999;-57
2023/09/28 09:35:59;;;;;;;10.80;5.30;;;;;;;24.42;64.28;100925.70;105608;1255;73480;-56
2023/09/28 09:38:29;;;;;;;10.10;5.40;;;;;;;24.52;63.35;100922.66;105614;1252;69053;-57
2023/09/28 09:41:04;;;;;;;13.10;5.20;;;;;;;24.68;62.80;100921.52;105611;1255;69117;-57
2023/09/28 09:43:36;;;;;;;8.70;4.90;;;;;;;24.84;62.30;100913.02;105637;1256;75362;-57
2023/09/28 09:46:06;;;;;;;8.40;4.70;;;;;;;25.05;61.98;100914.29;105687;1251;84177;-57
2023/09/28 09:48:40;;;;;;;9.50;5.10;;;;;;;25.17;60.77;100913.38;105687;1256;73796;-57
2023/09/28 09:51:10;;;;;;;10.00;4.90;;;;;;;25.23;59.85;100911.08;105601;1251;69187;-57
2023/09/28 09:53:42;;;;;;;10.50;4.60;;;;;;;25.28;58.96;100912.71;105669;1255;69193;-57
2023/09/28 09:56:12;;;;;;;10.60;4.70;;;;;;;25.36;58.25;100906.42;105588;1253;73890;-56
2023/09/28 09:58:49;;;;;;;7.40;4.80;;;;;;;25.52;57.82;100908.38;105611;1256;83384;-57
2023/09/28 10:01:19;;;;;;;9.10;4.40;;;;;;;25.68;57.40;100906.90;105605;1253;73769;-57
2023/09/28 10:03:51;;;;;;;9.60;5.00;;;;;;;25.83;56.95;100912.88;105734;1251;69180;-57
2023/09/28 10:06:22;;;;;;;7.60;4.40;;;;;;;25.95;56.05;100907.77;105602;1254;69200;-57
2023/09/28 10:08:51;;;;;;;9.70;4.80;;;;;;;26.14;55.98;100913.77;105642;1254;74964;-57
2023/09/28 10:11:20;;;;;;;12.50;4.80;;;;;;;26.32;55.40;100909.88;105696;1255;83260;-57
2023/09/28 10:13:49;;;;;;;10.90;4.70;;;;;;;26.55;55.10;100912.67;105633;1253;72384;-57
2023/09/28 10:16:18;;;;;;;8.80;4.70;;;;;;;26.80;54.71;100915.63;105797;1251;69118;-57
2023/09/28 10:18:48;;;;;;;11.80;5.10;;;;;;;27.12;54.22;100911.11;105498;1253;69036;-57
2023/09/28 10:21:17;;;;;;;13.70;5.00;;;;;;;27.38;53.77;100910.27;105496;1257;73952;-57
2023/09/28 10:23:47;;;;;;;9.50;4.70;;;;;;;27.57;52.99;100904.27;105607;1253;83739;-55
2023/09/28 10:26:16;;;;;;;14.30;5.10;;;;;;;27.78;52.25;100902.48;105634;1253;73640;-56
2023/09/28 10:29:05;;;;;;;11.40;4.70;;;;;;;27.99;51.92;100905.19;105655;1255;69168;-55
2023/09/28 10:31:41;;;;;;;8.70;4.20;;;;;;;28.28;51.59;100901.73;105622;1253;69065;-56
2023/09/28 10:34:27;;;;;;;9.10;4.50;;;;;;;28.58;50.98;100908.86;105640;1254;74616;-55
2023/09/28 10:37:05;;;;;;;9.00;4.50;;;;;;;28.69;50.03;100911.27;105706;1254;84035;-55
2023/09/28 10:39:35;;;;;;;8.70;4.70;;;;;;;28.63;48.91;100907.23;105640;1254;73574;-55
2023/09/28 10:42:15;;;;;;;11.80;4.60;;;;;;;28.72;48.77;100912.40;105612;1253;69049;-55
2023/09/28 10:44:50;;;;;;;9.20;4.40;;;;;;;28.84;47.79;100903.61;105657;1255;69141;-56
2023/09/28 10:47:23;;;;;;;9.30;4.40;;;;;;;28.86;47.57;100903.58;105625;1253;74817;-56
2023/09/28 10:50:05;;;;;;;7.70;4.20;;;;;;;29.09;47.50;100894.02;105649;1253;82489;-56
2023/09/28 10:52:34;;;;;;;10.90;5.20;;;;;;;29.46;47.45;100889.89;105627;1254;73603;-57
2023/09/28 10:55:02;;;;;;;11.80;4.50;;;;;;;29.67;46.61;100895.00;105640;1253;69261;-56
2023/09/28 10:57:31;;;;;;;7.80;4.30;;;;;;;29.77;45.88;100892.82;105557;1253;69201;-56
2023/09/28 11:00:02;;;;;;;10.70;4.60;;;;;;;29.97;45.76;100897.98;105605;1253;75481;-56
2023/09/28 11:02:37;;;;;;;8.40;4.40;;;;;;;30.14;45.15;100896.58;105599;1253;82375;-56
2023/09/28 11:05:07;;;;;;;10.10;5.10;;;;;;;30.37;44.61;100897.25;105629;1253;73428;-57
2023/09/28 11:07:37;;;;;;;6.40;4.20;;;;;;;30.57;44.55;100901.68;105714;1256;69214;-56
2023/09/28 11:10:08;;;;;;;;;;;;;;;30.75;44.30;100896.29;105695;1253;69082;-57
2023/09/28 11:12:36;;;;;;;9.80;3.90;;;;;;;30.96;43.54;100894.56;105644;1256;75287;-57
2023/09/28 11:15:05;;;;;;;11.50;3.90;;;;;;;31.01;42.55;100894.83;105622;1256;83370;-56
2023/09/28 11:17:33;;;;;;;11.10;4.00;;;;;;;31.06;41.89;100894.72;105558;1256;73929;-56
2023/09/28 11:20:03;;;;;;;5.90;3.50;;;;;;;31.15;41.36;100892.84;105573;1256;69609;-56
2023/09/28 11:22:32;;;;;;;8.70;3.80;;;;;;;31.12;40.90;100880.36;105634;1255;69183;-56
2023/09/28 11:25:01;;;;;;;8.80;4.40;;;;;;;31.24;40.68;100879.55;105613;1254;74898;-56
2023/09/28 11:27:30;;;;;;;11.30;3.60;;;;;;;31.30;40.25;100870.21;105547;1251;83878;-56